createdAt,value
2022-12-09T00:20:07.155Z,18
2022-12-09T00:51:13.722Z,14
2022-12-09T01:22:20.543Z,18
2022-12-09T01:53:24.182Z,14
2022-12-09T02:24:32.738Z,18
2022-12-09T02:55:34.009Z,14
2022-12-09T03:26:37.418Z,14
2022-12-09T03:57:40.839Z,13
2022-12-09T04:28:42.730Z,13
2022-12-09T04:59:47.071Z,13
2022-12-09T05:30:53.073Z,13
2022-12-09T06:01:54.206Z,13
2022-12-09T06:32:59.581Z,13
2022-12-09T07:04:08.047Z,13
2022-12-09T07:35:09.293Z,11
2022-12-09T08:06:10.679Z,13
2022-12-09T08:37:13.658Z,11
2022-12-09T09:08:16.576Z,11
2022-12-09T09:39:20.220Z,13
2022-12-09T10:10:27.704Z,13
2022-12-09T10:41:31.181Z,14
2022-12-09T11:12:36.290Z,13
2022-12-09T11:43:41.279Z,18
2022-12-09T12:14:46.219Z,14
2022-12-09T12:45:49.934Z,14
2022-12-09T13:16:54.938Z,13
2022-12-09T13:48:00.582Z,13
2022-12-09T15:15:31.164Z,11
2022-12-09T15:47:33.401Z,11
2022-12-09T16:19:43.862Z,14
2022-12-09T16:50:50.630Z,13
2022-12-09T17:21:55.248Z,14
2022-12-09T17:54:09.612Z,15
2022-12-09T18:25:14.894Z,14
2022-12-09T19:27:23.608Z,17
2022-12-09T19:58:25.470Z,19
2022-12-09T20:29:28.700Z,19
2022-12-09T21:00:35.395Z,18
2022-12-09T21:31:42.353Z,19
2022-12-09T22:02:51.825Z,19
2022-12-09T22:33:57.345Z,20
2022-12-09T23:05:07.241Z,20
2022-12-09T23:36:09.302Z,19
